Oxford, Colorado
Current Conditions -  °F | °C
As of 12:53 AM on Thursday 18 Dec 2014 (Local Time) from KDRO Reporting Station
Overcast Overcast  
Wind Chill: 22°   Ceiling: 6000
Heat Index: 31°   Visibility: 10mi
Dew Point: 27°   Wind: 12mph
Humidity: 85%   Direction: 250°WSW
Pressure: 30.06"   Gusts: NA
Location:  37.0891°N, 107.649°W
Report Text: KDRO 180753Z AUTO 25010KT 10SM OVC060 M01/M03 A3006 RMK AO2 SLP188 T10061028
Loading
Personal Weather Stations






























Interactive Weather Map New forecast layout! Learn more

10-Day Weather Forecast

Advertisements
Track Severe Weather on mobile